sensor_id;sensor_type;location;lat;lon;timestamp;P1;durP1;ratioP1;P2;durP2;ratioP2
28920;SDS011;16035;53.594;9.952;2023-07-13T00:01:42;2.03;;;1.50;;
28920;SDS011;16035;53.594;9.952;2023-07-13T00:03:43;2.70;;;1.70;;
28920;SDS011;16035;53.594;9.952;2023-07-13T00:05:43;2.70;;;1.67;;
28920;SDS011;16035;53.594;9.952;2023-07-13T00:07:44;6.13;;;1.87;;
28920;SDS011;16035;53.594;9.952;2023-07-13T00:09:46;2.35;;;1.60;;
28920;SDS011;16035;53.594;9.952;2023-07-13T00:11:50;4.80;;;2.22;;
28920;SDS011;16035;53.594;9.952;2023-07-13T00:13:52;4.47;;;1.65;;
28920;SDS011;16035;53.594;9.952;2023-07-13T00:15:52;6.90;;;1.70;;
28920;SDS011;16035;53.594;9.952;2023-07-13T00:17:54;3.05;;;1.52;;
28920;SDS011;16035;53.594;9.952;2023-07-13T00:19:55;1.98;;;1.40;;
28920;SDS011;16035;53.594;9.952;2023-07-13T00:21:56;4.50;;;1.80;;
28920;SDS011;16035;53.594;9.952;2023-07-13T00:23:57;4.67;;;2.03;;
28920;SDS011;16035;53.594;9.952;2023-07-13T00:25:57;5.67;;;1.83;;
28920;SDS011;16035;53.594;9.952;2023-07-13T00:27:57;3.60;;;1.63;;
28920;SDS011;16035;53.594;9.952;2023-07-13T00:29:58;4.47;;;1.80;;
28920;SDS011;16035;53.594;9.952;2023-07-13T00:31:59;4.53;;;1.70;;
28920;SDS011;16035;53.594;9.952;2023-07-13T00:33:59;2.20;;;1.50;;
28920;SDS011;16035;53.594;9.952;2023-07-13T00:36:00;2.67;;;1.70;;
28920;SDS011;16035;53.594;9.952;2023-07-13T00:38:00;3.53;;;1.80;;
28920;SDS011;16035;53.594;9.952;2023-07-13T00:40:02;3.43;;;1.70;;
28920;SDS011;16035;53.594;9.952;2023-07-13T00:42:03;2.70;;;1.75;;
28920;SDS011;16035;53.594;9.952;2023-07-13T00:44:04;2.88;;;1.90;;
28920;SDS011;16035;53.594;9.952;2023-07-13T00:46:15;4.50;;;2.07;;
28920;SDS011;16035;53.594;9.952;2023-07-13T00:48:19;3.65;;;2.40;;
28920;SDS011;16035;53.594;9.952;2023-07-13T00:50:21;5.07;;;2.10;;
28920;SDS011;16035;53.594;9.952;2023-07-13T00:52:22;3.42;;;2.03;;
28920;SDS011;16035;53.594;9.952;2023-07-13T00:54:24;1.98;;;1.77;;
28920;SDS011;16035;53.594;9.952;2023-07-13T00:56:30;4.93;;;2.10;;
28920;SDS011;16035;53.594;9.952;2023-07-13T00:58:32;3.65;;;1.95;;
28920;SDS011;16035;53.594;9.952;2023-07-13T01:00:34;4.00;;;2.13;;
28920;SDS011;16035;53.594;9.952;2023-07-13T01:02:37;2.97;;;2.22;;
28920;SDS011;16035;53.594;9.952;2023-07-13T01:04:40;4.47;;;2.15;;
28920;SDS011;16035;53.594;9.952;2023-07-13T01:06:44;4.68;;;2.03;;
28920;SDS011;16035;53.594;9.952;2023-07-13T01:08:46;5.28;;;1.88;;
28920;SDS011;16035;53.594;9.952;2023-07-13T01:10:51;1.77;;;1.53;;
28920;SDS011;16035;53.594;9.952;2023-07-13T01:12:53;4.30;;;2.58;;
28920;SDS011;16035;53.594;9.952;2023-07-13T01:14:58;2.80;;;1.65;;
28920;SDS011;16035;53.594;9.952;2023-07-13T01:17:00;2.42;;;1.83;;
28920;SDS011;16035;53.594;9.952;2023-07-13T01:19:00;5.30;;;2.63;;
28920;SDS011;16035;53.594;9.952;2023-07-13T01:21:04;5.13;;;2.40;;
28920;SDS011;16035;53.594;9.952;2023-07-13T01:23:05;3.63;;;2.70;;
28920;SDS011;16035;53.594;9.952;2023-07-13T01:25:07;4.07;;;2.05;;
28920;SDS011;16035;53.594;9.952;2023-07-13T01:27:08;4.00;;;2.47;;
28920;SDS011;16035;53.594;9.952;2023-07-13T01:29:11;7.38;;;2.50;;
28920;SDS011;16035;53.594;9.952;2023-07-13T01:31:11;2.83;;;2.07;;
28920;SDS011;16035;53.594;9.952;2023-07-13T01:33:15;5.77;;;2.77;;
28920;SDS011;16035;53.594;9.952;2023-07-13T01:35:17;4.07;;;2.42;;
28920;SDS011;16035;53.594;9.952;2023-07-13T01:37:17;6.00;;;2.27;;
28920;SDS011;16035;53.594;9.952;2023-07-13T01:39:18;4.70;;;2.80;;
28920;SDS011;16035;53.594;9.952;2023-07-13T01:41:18;4.43;;;2.30;;
28920;SDS011;16035;53.594;9.952;2023-07-13T01:43:19;4.13;;;2.67;;
28920;SDS011;16035;53.594;9.952;2023-07-13T01:45:19;5.10;;;2.70;;
28920;SDS011;16035;53.594;9.952;2023-07-13T01:47:19;7.37;;;3.07;;
28920;SDS011;16035;53.594;9.952;2023-07-13T01:49:20;3.13;;;2.30;;
28920;SDS011;16035;53.594;9.952;2023-07-13T01:51:21;6.80;;;2.70;;
28920;SDS011;16035;53.594;9.952;2023-07-13T01:53:21;3.43;;;3.03;;
28920;SDS011;16035;53.594;9.952;2023-07-13T01:55:21;3.57;;;2.87;;
28920;SDS011;16035;53.594;9.952;2023-07-13T01:57:22;4.83;;;3.00;;
28920;SDS011;16035;53.594;9.952;2023-07-13T01:59:22;3.87;;;2.87;;
28920;SDS011;16035;53.594;9.952;2023-07-13T02:01:22;5.17;;;3.10;;
28920;SDS011;16035;53.594;9.952;2023-07-13T02:03:23;6.00;;;2.90;;
28920;SDS011;16035;53.594;9.952;2023-07-13T02:05:23;4.50;;;2.60;;
28920;SDS011;16035;53.594;9.952;2023-07-13T02:07:24;4.30;;;2.70;;
28920;SDS011;16035;53.594;9.952;2023-07-13T02:09:24;4.63;;;2.67;;
28920;SDS011;16035;53.594;9.952;2023-07-13T02:11:24;3.37;;;3.03;;
28920;SDS011;16035;53.594;9.952;2023-07-13T02:13:32;4.22;;;2.60;;
28920;SDS011;16035;53.594;9.952;2023-07-13T02:15:32;4.23;;;2.77;;
28920;SDS011;16035;53.594;9.952;2023-07-13T02:17:33;4.47;;;2.73;;
28920;SDS011;16035;53.594;9.952;2023-07-13T02:19:35;6.60;;;2.90;;
28920;SDS011;16035;53.594;9.952;2023-07-13T02:21:36;5.10;;;3.03;;
28920;SDS011;16035;53.594;9.952;2023-07-13T02:23:36;3.80;;;2.43;;
28920;SDS011;16035;53.594;9.952;2023-07-13T02:25:37;4.40;;;2.73;;
28920;SDS011;16035;53.594;9.952;2023-07-13T02:27:37;5.40;;;2.80;;
28920;SDS011;16035;53.594;9.952;2023-07-13T02:29:37;3.73;;;2.90;;
28920;SDS011;16035;53.594;9.952;2023-07-13T02:31:37;5.40;;;3.17;;
28920;SDS011;16035;53.594;9.952;2023-07-13T02:33:38;5.63;;;2.70;;
28920;SDS011;16035;53.594;9.952;2023-07-13T02:35:38;7.13;;;3.10;;
28920;SDS011;16035;53.594;9.952;2023-07-13T02:37:39;4.30;;;2.80;;
28920;SDS011;16035;53.594;9.952;2023-07-13T02:39:39;5.13;;;3.20;;
28920;SDS011;16035;53.594;9.952;2023-07-13T02:41:39;3.67;;;3.10;;
28920;SDS011;16035;53.594;9.952;2023-07-13T02:43:40;3.73;;;2.83;;
28920;SDS011;16035;53.594;9.952;2023-07-13T02:45:43;4.90;;;2.63;;
28920;SDS011;16035;53.594;9.952;2023-07-13T02:47:44;3.35;;;2.70;;
28920;SDS011;16035;53.594;9.952;2023-07-13T02:49:44;5.50;;;3.20;;
28920;SDS011;16035;53.594;9.952;2023-07-13T02:51:44;5.77;;;3.37;;
28920;SDS011;16035;53.594;9.952;2023-07-13T02:53:45;3.97;;;3.30;;
28920;SDS011;16035;53.594;9.952;2023-07-13T02:55:45;4.77;;;2.90;;
28920;SDS011;16035;53.594;9.952;2023-07-13T02:57:47;5.82;;;3.08;;
28920;SDS011;16035;53.594;9.952;2023-07-13T02:59:47;6.63;;;3.10;;
28920;SDS011;16035;53.594;9.952;2023-07-13T03:01:48;3.50;;;2.97;;
28920;SDS011;16035;53.594;9.952;2023-07-13T03:03:48;4.97;;;3.40;;
28920;SDS011;16035;53.594;9.952;2023-07-13T03:07:57;3.50;;;2.40;;
28920;SDS011;16035;53.594;9.952;2023-07-13T03:09:58;4.33;;;3.00;;
28920;SDS011;16035;53.594;9.952;2023-07-13T03:11:59;3.58;;;2.95;;
28920;SDS011;16035;53.594;9.952;2023-07-13T03:13:59;5.77;;;3.20;;
28920;SDS011;16035;53.594;9.952;2023-07-13T03:16:00;4.40;;;3.20;;
28920;SDS011;16035;53.594;9.952;2023-07-13T03:18:00;5.03;;;3.30;;
28920;SDS011;16035;53.594;9.952;2023-07-13T03:20:00;3.40;;;3.03;;
28920;SDS011;16035;53.594;9.952;2023-07-13T03:22:01;5.77;;;3.27;;
28920;SDS011;16035;53.594;9.952;2023-07-13T03:24:01;4.63;;;3.37;;
28920;SDS011;16035;53.594;9.952;2023-07-13T03:26:05;7.93;;;3.37;;
28920;SDS011;16035;53.594;9.952;2023-07-13T03:28:09;4.43;;;3.03;;
28920;SDS011;16035;53.594;9.952;2023-07-13T03:30:10;4.13;;;3.17;;
28920;SDS011;16035;53.594;9.952;2023-07-13T03:32:11;6.38;;;3.22;;
28920;SDS011;16035;53.594;9.952;2023-07-13T03:34:12;4.30;;;3.27;;
28920;SDS011;16035;53.594;9.952;2023-07-13T03:36:18;4.73;;;2.70;;
28920;SDS011;16035;53.594;9.952;2023-07-13T03:38:21;4.38;;;3.40;;
28920;SDS011;16035;53.594;9.952;2023-07-13T03:40:21;3.90;;;3.37;;
28920;SDS011;16035;53.594;9.952;2023-07-13T03:42:22;5.97;;;3.33;;
28920;SDS011;16035;53.594;9.952;2023-07-13T03:44:22;6.30;;;3.90;;
28920;SDS011;16035;53.594;9.952;2023-07-13T03:46:22;4.53;;;3.03;;
28920;SDS011;16035;53.594;9.952;2023-07-13T03:48:23;6.57;;;2.93;;
28920;SDS011;16035;53.594;9.952;2023-07-13T03:50:23;3.40;;;2.83;;
28920;SDS011;16035;53.594;9.952;2023-07-13T03:52:24;3.67;;;3.00;;
28920;SDS011;16035;53.594;9.952;2023-07-13T03:54:24;6.80;;;3.13;;
28920;SDS011;16035;53.594;9.952;2023-07-13T03:56:24;3.20;;;2.87;;
28920;SDS011;16035;53.594;9.952;2023-07-13T04:00:28;4.47;;;2.85;;
28920;SDS011;16035;53.594;9.952;2023-07-13T04:02:28;7.30;;;2.87;;
28920;SDS011;16035;53.594;9.952;2023-07-13T04:04:29;5.67;;;2.67;;
28920;SDS011;16035;53.594;9.952;2023-07-13T04:06:30;8.23;;;3.17;;
28920;SDS011;16035;53.594;9.952;2023-07-13T04:08:33;4.45;;;2.88;;
28920;SDS011;16035;53.594;9.952;2023-07-13T04:10:35;4.35;;;2.70;;
28920;SDS011;16035;53.594;9.952;2023-07-13T04:12:35;5.20;;;2.93;;
28920;SDS011;16035;53.594;9.952;2023-07-13T04:14:36;8.67;;;2.53;;
28920;SDS011;16035;53.594;9.952;2023-07-13T04:16:37;3.00;;;2.67;;
28920;SDS011;16035;53.594;9.952;2023-07-13T04:18:37;6.77;;;2.30;;
28920;SDS011;16035;53.594;9.952;2023-07-13T04:20:38;7.07;;;2.90;;
28920;SDS011;16035;53.594;9.952;2023-07-13T04:22:38;5.37;;;3.27;;
28920;SDS011;16035;53.594;9.952;2023-07-13T04:24:38;5.43;;;2.73;;
28920;SDS011;16035;53.594;9.952;2023-07-13T04:26:39;3.73;;;2.43;;
28920;SDS011;16035;53.594;9.952;2023-07-13T04:28:39;4.20;;;2.53;;
28920;SDS011;16035;53.594;9.952;2023-07-13T04:30:40;4.13;;;2.70;;
28920;SDS011;16035;53.594;9.952;2023-07-13T04:32:40;6.63;;;2.73;;
28920;SDS011;16035;53.594;9.952;2023-07-13T04:34:40;3.93;;;2.70;;
28920;SDS011;16035;53.594;9.952;2023-07-13T04:36:41;6.27;;;2.80;;
28920;SDS011;16035;53.594;9.952;2023-07-13T04:38:41;3.50;;;2.73;;
28920;SDS011;16035;53.594;9.952;2023-07-13T04:40:45;6.57;;;2.60;;
28920;SDS011;16035;53.594;9.952;2023-07-13T04:42:45;4.88;;;2.78;;
28920;SDS011;16035;53.594;9.952;2023-07-13T04:44:50;5.47;;;2.72;;
28920;SDS011;16035;53.594;9.952;2023-07-13T04:46:51;5.50;;;2.65;;
28920;SDS011;16035;53.594;9.952;2023-07-13T04:48:51;6.10;;;3.00;;
28920;SDS011;16035;53.594;9.952;2023-07-13T04:50:57;6.03;;;3.22;;
28920;SDS011;16035;53.594;9.952;2023-07-13T04:52:58;4.82;;;2.83;;
28920;SDS011;16035;53.594;9.952;2023-07-13T04:54:59;5.17;;;3.03;;
28920;SDS011;16035;53.594;9.952;2023-07-13T04:57:00;4.78;;;3.33;;
28920;SDS011;16035;53.594;9.952;2023-07-13T04:59:00;6.23;;;2.90;;
28920;SDS011;16035;53.594;9.952;2023-07-13T05:01:04;6.40;;;2.87;;
28920;SDS011;16035;53.594;9.952;2023-07-13T05:03:05;5.07;;;3.38;;
28920;SDS011;16035;53.594;9.952;2023-07-13T05:05:06;4.57;;;3.20;;
28920;SDS011;16035;53.594;9.952;2023-07-13T05:07:07;4.82;;;3.15;;
28920;SDS011;16035;53.594;9.952;2023-07-13T05:09:07;9.27;;;3.50;;
28920;SDS011;16035;53.594;9.952;2023-07-13T05:11:07;7.53;;;3.23;;
28920;SDS011;16035;53.594;9.952;2023-07-13T05:13:08;8.03;;;3.20;;
28920;SDS011;16035;53.594;9.952;2023-07-13T05:15:08;8.43;;;3.23;;
28920;SDS011;16035;53.594;9.952;2023-07-13T05:17:10;7.40;;;3.20;;
28920;SDS011;16035;53.594;9.952;2023-07-13T05:19:10;7.57;;;3.47;;
28920;SDS011;16035;53.594;9.952;2023-07-13T05:21:12;8.20;;;4.15;;
28920;SDS011;16035;53.594;9.952;2023-07-13T05:23:12;9.67;;;3.10;;
28920;SDS011;16035;53.594;9.952;2023-07-13T05:25:13;8.77;;;3.73;;
28920;SDS011;16035;53.594;9.952;2023-07-13T05:27:14;5.30;;;3.42;;
28920;SDS011;16035;53.594;9.952;2023-07-13T05:29:14;6.47;;;3.43;;
28920;SDS011;16035;53.594;9.952;2023-07-13T05:31:14;10.37;;;3.63;;
28920;SDS011;16035;53.594;9.952;2023-07-13T05:33:15;9.97;;;4.17;;
28920;SDS011;16035;53.594;9.952;2023-07-13T05:35:15;8.00;;;3.63;;
28920;SDS011;16035;53.594;9.952;2023-07-13T05:37:16;11.80;;;3.87;;
28920;SDS011;16035;53.594;9.952;2023-07-13T05:39:16;12.47;;;4.07;;
28920;SDS011;16035;53.594;9.952;2023-07-13T05:41:17;12.10;;;3.63;;
28920;SDS011;16035;53.594;9.952;2023-07-13T05:43:17;7.80;;;3.83;;
28920;SDS011;16035;53.594;9.952;2023-07-13T05:45:17;10.37;;;3.53;;
28920;SDS011;16035;53.594;9.952;2023-07-13T05:47:18;7.90;;;3.07;;
28920;SDS011;16035;53.594;9.952;2023-07-13T05:49:18;6.53;;;3.47;;
28920;SDS011;16035;53.594;9.952;2023-07-13T05:51:18;6.77;;;3.77;;
28920;SDS011;16035;53.594;9.952;2023-07-13T05:53:19;9.40;;;3.80;;
28920;SDS011;16035;53.594;9.952;2023-07-13T05:55:19;7.03;;;3.60;;
28920;SDS011;16035;53.594;9.952;2023-07-13T05:57:20;7.32;;;3.53;;
28920;SDS011;16035;53.594;9.952;2023-07-13T05:59:20;9.77;;;3.20;;
28920;SDS011;16035;53.594;9.952;2023-07-13T06:01:21;6.87;;;3.23;;
28920;SDS011;16035;53.594;9.952;2023-07-13T06:03:22;4.22;;;3.17;;
28920;SDS011;16035;53.594;9.952;2023-07-13T06:05:22;8.63;;;3.13;;
28920;SDS011;16035;53.594;9.952;2023-07-13T06:07:23;9.07;;;4.00;;
28920;SDS011;16035;53.594;9.952;2023-07-13T06:09:23;7.57;;;3.53;;
28920;SDS011;16035;53.594;9.952;2023-07-13T06:13:26;10.90;;;3.40;;
28920;SDS011;16035;53.594;9.952;2023-07-13T06:15:26;7.90;;;3.43;;
28920;SDS011;16035;53.594;9.952;2023-07-13T06:17:27;7.45;;;3.47;;
28920;SDS011;16035;53.594;9.952;2023-07-13T06:19:28;5.90;;;3.23;;
28920;SDS011;16035;53.594;9.952;2023-07-13T06:21:28;7.03;;;3.30;;
28920;SDS011;16035;53.594;9.952;2023-07-13T06:23:29;6.37;;;3.00;;
28920;SDS011;16035;53.594;9.952;2023-07-13T06:25:29;5.43;;;2.80;;
28920;SDS011;16035;53.594;9.952;2023-07-13T06:27:29;8.17;;;3.27;;
28920;SDS011;16035;53.594;9.952;2023-07-13T06:29:30;7.13;;;3.33;;
28920;SDS011;16035;53.594;9.952;2023-07-13T06:31:31;5.80;;;2.90;;
28920;SDS011;16035;53.594;9.952;2023-07-13T06:33:32;12.50;;;3.77;;
28920;SDS011;16035;53.594;9.952;2023-07-13T06:35:33;7.70;;;3.28;;
28920;SDS011;16035;53.594;9.952;2023-07-13T06:37:33;8.37;;;3.60;;
28920;SDS011;16035;53.594;9.952;2023-07-13T06:39:34;10.10;;;3.87;;
28920;SDS011;16035;53.594;9.952;2023-07-13T06:41:34;13.17;;;4.80;;
28920;SDS011;16035;53.594;9.952;2023-07-13T06:43:34;8.70;;;3.07;;
28920;SDS011;16035;53.594;9.952;2023-07-13T06:45:39;13.20;;;3.93;;
28920;SDS011;16035;53.594;9.952;2023-07-13T06:47:41;10.95;;;3.95;;
28920;SDS011;16035;53.594;9.952;2023-07-13T06:49:41;9.07;;;2.93;;
28920;SDS011;16035;53.594;9.952;2023-07-13T06:51:41;5.37;;;2.77;;
28920;SDS011;16035;53.594;9.952;2023-07-13T06:53:42;6.33;;;3.13;;
28920;SDS011;16035;53.594;9.952;2023-07-13T06:55:43;4.82;;;2.50;;
28920;SDS011;16035;53.594;9.952;2023-07-13T06:59:45;7.97;;;2.87;;
28920;SDS011;16035;53.594;9.952;2023-07-13T07:01:45;10.37;;;3.00;;
28920;SDS011;16035;53.594;9.952;2023-07-13T07:03:46;6.93;;;2.60;;
28920;SDS011;16035;53.594;9.952;2023-07-13T07:05:47;9.18;;;2.60;;
28920;SDS011;16035;53.594;9.952;2023-07-13T07:07:48;13.10;;;3.30;;
28920;SDS011;16035;53.594;9.952;2023-07-13T07:09:50;5.32;;;2.67;;
28920;SDS011;16035;53.594;9.952;2023-07-13T07:11:50;9.70;;;2.50;;
28920;SDS011;16035;53.594;9.952;2023-07-13T07:13:51;9.17;;;2.97;;
28920;SDS011;16035;53.594;9.952;2023-07-13T07:15:52;11.95;;;2.70;;
28920;SDS011;16035;53.594;9.952;2023-07-13T07:17:52;6.73;;;2.37;;
28920;SDS011;16035;53.594;9.952;2023-07-13T07:19:52;8.00;;;2.40;;
28920;SDS011;16035;53.594;9.952;2023-07-13T07:21:55;6.40;;;2.40;;
28920;SDS011;16035;53.594;9.952;2023-07-13T07:23:56;6.77;;;2.43;;
28920;SDS011;16035;53.594;9.952;2023-07-13T07:25:56;7.30;;;2.20;;
28920;SDS011;16035;53.594;9.952;2023-07-13T07:27:56;7.13;;;2.40;;
28920;SDS011;16035;53.594;9.952;2023-07-13T07:29:57;6.63;;;2.33;;
28920;SDS011;16035;53.594;9.952;2023-07-13T07:31:58;5.73;;;2.27;;
28920;SDS011;16035;53.594;9.952;2023-07-13T07:34:00;5.40;;;2.20;;
28920;SDS011;16035;53.594;9.952;2023-07-13T07:36:01;7.10;;;2.00;;
28920;SDS011;16035;53.594;9.952;2023-07-13T07:38:01;8.35;;;2.33;;
28920;SDS011;16035;53.594;9.952;2023-07-13T07:40:02;8.87;;;2.43;;
28920;SDS011;16035;53.594;9.952;2023-07-13T07:42:02;5.72;;;2.13;;
28920;SDS011;16035;53.594;9.952;2023-07-13T07:44:03;4.83;;;2.60;;
28920;SDS011;16035;53.594;9.952;2023-07-13T07:46:04;7.15;;;2.40;;
28920;SDS011;16035;53.594;9.952;2023-07-13T07:48:05;7.60;;;2.63;;
28920;SDS011;16035;53.594;9.952;2023-07-13T07:50:05;6.22;;;2.47;;
28920;SDS011;16035;53.594;9.952;2023-07-13T07:52:06;4.78;;;2.78;;
28920;SDS011;16035;53.594;9.952;2023-07-13T07:54:07;4.95;;;2.13;;
28920;SDS011;16035;53.594;9.952;2023-07-13T07:56:07;4.63;;;2.13;;
28920;SDS011;16035;53.594;9.952;2023-07-13T07:58:09;5.22;;;2.03;;
28920;SDS011;16035;53.594;9.952;2023-07-13T08:00:10;6.27;;;2.13;;
28920;SDS011;16035;53.594;9.952;2023-07-13T08:02:11;8.82;;;2.40;;
28920;SDS011;16035;53.594;9.952;2023-07-13T08:04:12;6.53;;;2.67;;
28920;SDS011;16035;53.594;9.952;2023-07-13T08:06:12;7.68;;;2.40;;
28920;SDS011;16035;53.594;9.952;2023-07-13T08:08:13;7.63;;;2.00;;
28920;SDS011;16035;53.594;9.952;2023-07-13T08:10:14;5.15;;;2.15;;
28920;SDS011;16035;53.594;9.952;2023-07-13T08:12:14;7.33;;;1.83;;
28920;SDS011;16035;53.594;9.952;2023-07-13T08:14:14;8.07;;;2.60;;
28920;SDS011;16035;53.594;9.952;2023-07-13T08:16:16;4.95;;;1.92;;
28920;SDS011;16035;53.594;9.952;2023-07-13T08:18:16;5.47;;;1.80;;
28920;SDS011;16035;53.594;9.952;2023-07-13T08:20:17;14.97;;;2.37;;
28920;SDS011;16035;53.594;9.952;2023-07-13T08:22:17;8.15;;;2.22;;
28920;SDS011;16035;53.594;9.952;2023-07-13T08:24:18;7.73;;;1.70;;
28920;SDS011;16035;53.594;9.952;2023-07-13T08:26:21;5.75;;;1.50;;
28920;SDS011;16035;53.594;9.952;2023-07-13T08:28:22;5.13;;;1.53;;
28920;SDS011;16035;53.594;9.952;2023-07-13T08:30:22;9.27;;;1.70;;
28920;SDS011;16035;53.594;9.952;2023-07-13T08:32:23;8.70;;;1.88;;
28920;SDS011;16035;53.594;9.952;2023-07-13T08:34:23;5.10;;;1.90;;
28920;SDS011;16035;53.594;9.952;2023-07-13T08:36:25;5.03;;;1.67;;
28920;SDS011;16035;53.594;9.952;2023-07-13T08:38:25;5.93;;;1.95;;
28920;SDS011;16035;53.594;9.952;2023-07-13T08:40:26;9.67;;;2.13;;
28920;SDS011;16035;53.594;9.952;2023-07-13T08:46:45;7.07;;;1.77;;
28920;SDS011;16035;53.594;9.952;2023-07-13T08:49:33;5.47;;;2.35;;
28920;SDS011;16035;53.594;9.952;2023-07-13T08:51:32;4.10;;;1.77;;
28920;SDS011;16035;53.594;9.952;2023-07-13T08:53:42;5.07;;;2.10;;
28920;SDS011;16035;53.594;9.952;2023-07-13T08:55:47;7.05;;;2.15;;
28920;SDS011;16035;53.594;9.952;2023-07-13T08:57:53;5.78;;;1.85;;
28920;SDS011;16035;53.594;9.952;2023-07-13T09:00:02;3.25;;;1.20;;
28920;SDS011;16035;53.594;9.952;2023-07-13T09:04:27;12.25;;;1.88;;
28920;SDS011;16035;53.594;9.952;2023-07-13T09:06:40;4.47;;;1.63;;
28920;SDS011;16035;53.594;9.952;2023-07-13T09:09:01;6.07;;;1.70;;
28920;SDS011;16035;53.594;9.952;2023-07-13T09:16:04;5.75;;;1.52;;
28920;SDS011;16035;53.594;9.952;2023-07-13T09:20:20;4.55;;;1.45;;
28920;SDS011;16035;53.594;9.952;2023-07-13T09:22:27;4.53;;;1.40;;
28920;SDS011;16035;53.594;9.952;2023-07-13T09:24:34;5.28;;;1.48;;
28920;SDS011;16035;53.594;9.952;2023-07-13T09:26:37;2.80;;;1.50;;
28920;SDS011;16035;53.594;9.952;2023-07-13T09:28:44;3.60;;;1.60;;
28920;SDS011;16035;53.594;9.952;2023-07-13T09:31:04;9.07;;;1.45;;
28920;SDS011;16035;53.594;9.952;2023-07-13T09:33:10;7.80;;;1.50;;
28920;SDS011;16035;53.594;9.952;2023-07-13T09:35:11;3.90;;;1.50;;
28920;SDS011;16035;53.594;9.952;2023-07-13T09:37:15;5.78;;;1.73;;
28920;SDS011;16035;53.594;9.952;2023-07-13T09:39:25;5.80;;;1.70;;
28920;SDS011;16035;53.594;9.952;2023-07-13T09:46:19;8.57;;;1.90;;
28920;SDS011;16035;53.594;9.952;2023-07-13T09:48:21;3.58;;;1.50;;
28920;SDS011;16035;53.594;9.952;2023-07-13T09:50:22;5.97;;;1.70;;
28920;SDS011;16035;53.594;9.952;2023-07-13T09:52:22;6.93;;;1.87;;
28920;SDS011;16035;53.594;9.952;2023-07-13T09:54:24;4.07;;;1.77;;
28920;SDS011;16035;53.594;9.952;2023-07-13T09:56:28;4.30;;;2.10;;
28920;SDS011;16035;53.594;9.952;2023-07-13T09:58:29;5.00;;;1.95;;
28920;SDS011;16035;53.594;9.952;2023-07-13T10:00:32;4.95;;;1.42;;
28920;SDS011;16035;53.594;9.952;2023-07-13T10:02:33;8.27;;;1.60;;
28920;SDS011;16035;53.594;9.952;2023-07-13T10:04:35;2.70;;;1.85;;
28920;SDS011;16035;53.594;9.952;2023-07-13T10:06:35;5.87;;;1.80;;
28920;SDS011;16035;53.594;9.952;2023-07-13T10:08:36;6.15;;;1.73;;
28920;SDS011;16035;53.594;9.952;2023-07-13T10:10:37;5.07;;;1.80;;
28920;SDS011;16035;53.594;9.952;2023-07-13T10:12:37;6.93;;;1.93;;
28920;SDS011;16035;53.594;9.952;2023-07-13T10:14:38;5.75;;;1.55;;
28920;SDS011;16035;53.594;9.952;2023-07-13T10:16:42;4.18;;;1.55;;
28920;SDS011;16035;53.594;9.952;2023-07-13T10:18:58;6.60;;;1.90;;
28920;SDS011;16035;53.594;9.952;2023-07-13T10:21:21;3.22;;;1.67;;
28920;SDS011;16035;53.594;9.952;2023-07-13T10:23:23;7.38;;;1.55;;
28920;SDS011;16035;53.594;9.952;2023-07-13T10:25:28;5.60;;;2.28;;
28920;SDS011;16035;53.594;9.952;2023-07-13T10:27:33;2.97;;;1.70;;
28920;SDS011;16035;53.594;9.952;2023-07-13T10:30:11;3.30;;;1.38;;
28920;SDS011;16035;53.594;9.952;2023-07-13T10:32:21;2.92;;;1.65;;
28920;SDS011;16035;53.594;9.952;2023-07-13T10:34:24;4.93;;;1.33;;
28920;SDS011;16035;53.594;9.952;2023-07-13T10:36:33;6.40;;;1.52;;
28920;SDS011;16035;53.594;9.952;2023-07-13T10:38:38;3.95;;;1.30;;
28920;SDS011;16035;53.594;9.952;2023-07-13T10:40:45;3.50;;;1.50;;
28920;SDS011;16035;53.594;9.952;2023-07-13T10:42:56;4.40;;;1.58;;
28920;SDS011;16035;53.594;9.952;2023-07-13T10:44:58;3.88;;;1.20;;
28920;SDS011;16035;53.594;9.952;2023-07-13T10:47:00;2.63;;;1.45;;
28920;SDS011;16035;53.594;9.952;2023-07-13T10:49:04;2.25;;;1.30;;
28920;SDS011;16035;53.594;9.952;2023-07-13T10:51:09;4.13;;;1.33;;
28920;SDS011;16035;53.594;9.952;2023-07-13T10:57:51;2.47;;;1.23;;
28920;SDS011;16035;53.594;9.952;2023-07-13T11:04:25;5.47;;;1.30;;
28920;SDS011;16035;53.594;9.952;2023-07-13T11:12:53;3.33;;;1.05;;
28920;SDS011;16035;53.594;9.952;2023-07-13T11:16:54;5.77;;;1.27;;
28920;SDS011;16035;53.594;9.952;2023-07-13T11:21:12;1.88;;;1.02;;
28920;SDS011;16035;53.594;9.952;2023-07-13T11:25:25;3.03;;;1.15;;
28920;SDS011;16035;53.594;9.952;2023-07-13T11:27:36;7.07;;;1.10;;
28920;SDS011;16035;53.594;9.952;2023-07-13T11:29:37;5.60;;;1.27;;
28920;SDS011;16035;53.594;9.952;2023-07-13T11:31:39;2.75;;;1.25;;
28920;SDS011;16035;53.594;9.952;2023-07-13T11:38:00;5.18;;;1.60;;
28920;SDS011;16035;53.594;9.952;2023-07-13T11:40:03;5.07;;;1.60;;
28920;SDS011;16035;53.594;9.952;2023-07-13T11:42:05;4.80;;;1.52;;
28920;SDS011;16035;53.594;9.952;2023-07-13T11:44:16;2.70;;;0.90;;
28920;SDS011;16035;53.594;9.952;2023-07-13T11:46:23;2.35;;;1.10;;
28920;SDS011;16035;53.594;9.952;2023-07-13T11:48:26;2.40;;;1.00;;
28920;SDS011;16035;53.594;9.952;2023-07-13T11:50:29;2.67;;;1.42;;
28920;SDS011;16035;53.594;9.952;2023-07-13T11:52:32;3.40;;;1.30;;
28920;SDS011;16035;53.594;9.952;2023-07-13T11:54:43;2.92;;;1.00;;
28920;SDS011;16035;53.594;9.952;2023-07-13T11:56:50;6.07;;;1.40;;
28920;SDS011;16035;53.594;9.952;2023-07-13T11:58:51;1.70;;;1.30;;
28920;SDS011;16035;53.594;9.952;2023-07-13T12:00:55;3.50;;;1.23;;
28920;SDS011;16035;53.594;9.952;2023-07-13T12:02:59;2.22;;;1.27;;
28920;SDS011;16035;53.594;9.952;2023-07-13T12:05:03;5.28;;;1.15;;
28920;SDS011;16035;53.594;9.952;2023-07-13T12:07:14;1.83;;;1.00;;
28920;SDS011;16035;53.594;9.952;2023-07-13T12:09:16;2.58;;;1.25;;
28920;SDS011;16035;53.594;9.952;2023-07-13T12:11:17;1.97;;;1.17;;
28920;SDS011;16035;53.594;9.952;2023-07-13T12:15:19;11.83;;;1.73;;
28920;SDS011;16035;53.594;9.952;2023-07-13T12:17:23;9.15;;;2.00;;
28920;SDS011;16035;53.594;9.952;2023-07-13T12:19:25;5.85;;;1.63;;
28920;SDS011;16035;53.594;9.952;2023-07-13T12:21:32;4.63;;;1.00;;
28920;SDS011;16035;53.594;9.952;2023-07-13T12:23:34;2.92;;;1.20;;
28920;SDS011;16035;53.594;9.952;2023-07-13T12:25:35;3.25;;;1.45;;
28920;SDS011;16035;53.594;9.952;2023-07-13T12:27:36;4.57;;;1.00;;
28920;SDS011;16035;53.594;9.952;2023-07-13T12:31:41;1.40;;;0.90;;
28920;SDS011;16035;53.594;9.952;2023-07-13T12:33:46;4.55;;;1.35;;
28920;SDS011;16035;53.594;9.952;2023-07-13T12:35:49;3.50;;;0.90;;
28920;SDS011;16035;53.594;9.952;2023-07-13T12:37:52;2.63;;;1.33;;
28920;SDS011;16035;53.594;9.952;2023-07-13T12:39:52;4.20;;;1.00;;
28920;SDS011;16035;53.594;9.952;2023-07-13T12:41:53;6.57;;;1.67;;
28920;SDS011;16035;53.594;9.952;2023-07-13T12:43:54;5.70;;;1.67;;
28920;SDS011;16035;53.594;9.952;2023-07-13T12:45:55;3.57;;;1.57;;
28920;SDS011;16035;53.594;9.952;2023-07-13T12:48:06;5.05;;;1.42;;
28920;SDS011;16035;53.594;9.952;2023-07-13T12:50:15;3.20;;;0.93;;
28920;SDS011;16035;53.594;9.952;2023-07-13T12:52:20;2.78;;;1.42;;
28920;SDS011;16035;53.594;9.952;2023-07-13T12:54:23;3.38;;;1.20;;
28920;SDS011;16035;53.594;9.952;2023-07-13T12:56:24;5.10;;;1.70;;
28920;SDS011;16035;53.594;9.952;2023-07-13T12:58:27;5.57;;;1.60;;
28920;SDS011;16035;53.594;9.952;2023-07-13T13:00:32;2.17;;;1.10;;
28920;SDS011;16035;53.594;9.952;2023-07-13T13:02:37;3.45;;;1.10;;
28920;SDS011;16035;53.594;9.952;2023-07-13T13:04:39;5.67;;;1.60;;
28920;SDS011;16035;53.594;9.952;2023-07-13T13:06:40;3.70;;;1.30;;
28920;SDS011;16035;53.594;9.952;2023-07-13T13:08:42;3.78;;;0.98;;
28920;SDS011;16035;53.594;9.952;2023-07-13T13:10:43;3.13;;;1.40;;
28920;SDS011;16035;53.594;9.952;2023-07-13T13:12:45;2.90;;;0.95;;
28920;SDS011;16035;53.594;9.952;2023-07-13T13:14:45;1.47;;;1.00;;